sensor_id;sensor_type;location;lat;lon;timestamp;pressure;altitude;pressure_sealevel;temperature
70333;BMP280;57747;43.548;-5.704;2022-07-23T00:01:33;102283.31;;;19.79
70333;BMP280;57747;43.548;-5.704;2022-07-23T00:04:04;102272.97;;;19.81
70333;BMP280;57747;43.548;-5.704;2022-07-23T00:06:35;102274.78;;;19.72
70333;BMP280;57747;43.548;-5.704;2022-07-23T00:09:03;102262.66;;;19.78
70333;BMP280;57747;43.548;-5.704;2022-07-23T00:11:28;102268.44;;;19.77
70333;BMP280;57747;43.548;-5.704;2022-07-23T00:13:58;102253.13;;;19.67
70333;BMP280;57747;43.548;-5.704;2022-07-23T00:16:26;102257.03;;;19.75
70333;BMP280;57747;43.548;-5.704;2022-07-23T00:18:54;102255.25;;;19.70
70333;BMP280;57747;43.548;-5.704;2022-07-23T00:21:19;102248.66;;;19.71
70333;BMP280;57747;43.548;-5.704;2022-07-23T00:23:48;102247.19;;;19.65
70333;BMP280;57747;43.548;-5.704;2022-07-23T00:26:13;102243.22;;;19.71
70333;BMP280;57747;43.548;-5.704;2022-07-23T00:28:41;102240.03;;;19.69
70333;BMP280;57747;43.548;-5.704;2022-07-23T00:31:06;102242.88;;;19.64
70333;BMP280;57747;43.548;-5.704;2022-07-23T00:33:40;102238.53;;;19.63
70333;BMP280;57747;43.548;-5.704;2022-07-23T00:36:06;102240.34;;;19.53
70333;BMP280;57747;43.548;-5.704;2022-07-23T00:38:36;102235.84;;;19.49
70333;BMP280;57747;43.548;-5.704;2022-07-23T00:41:04;102234.22;;;19.48
70333;BMP280;57747;43.548;-5.704;2022-07-23T00:43:32;102238.56;;;19.35
70333;BMP280;57747;43.548;-5.704;2022-07-23T00:46:00;102232.63;;;19.33
70333;BMP280;57747;43.548;-5.704;2022-07-23T00:48:28;102230.78;;;19.28
70333;BMP280;57747;43.548;-5.704;2022-07-23T00:50:56;102226.59;;;19.22
70333;BMP280;57747;43.548;-5.704;2022-07-23T00:53:21;102231.63;;;19.15
70333;BMP280;57747;43.548;-5.704;2022-07-23T00:55:53;102228.22;;;19.09
70333;BMP280;57747;43.548;-5.704;2022-07-23T00:58:20;102224.28;;;19.02
70333;BMP280;57747;43.548;-5.704;2022-07-23T01:00:46;102226.69;;;19.03
70333;BMP280;57747;43.548;-5.704;2022-07-23T01:03:12;102219.44;;;18.99
70333;BMP280;57747;43.548;-5.704;2022-07-23T01:05:37;102220.06;;;18.95
70333;BMP280;57747;43.548;-5.704;2022-07-23T01:08:03;102211.69;;;18.92
70333;BMP280;57747;43.548;-5.704;2022-07-23T01:10:30;102215.09;;;18.84
70333;BMP280;57747;43.548;-5.704;2022-07-23T01:12:56;102213.19;;;18.84
70333;BMP280;57747;43.548;-5.704;2022-07-23T01:15:22;102211.06;;;18.81
70333;BMP280;57747;43.548;-5.704;2022-07-23T01:17:47;102205.31;;;18.69
70333;BMP280;57747;43.548;-5.704;2022-07-23T01:20:13;102205.41;;;18.64
70333;BMP280;57747;43.548;-5.704;2022-07-23T01:22:38;102209.63;;;18.56
70333;BMP280;57747;43.548;-5.704;2022-07-23T01:25:07;102208.63;;;18.52
70333;BMP280;57747;43.548;-5.704;2022-07-23T01:27:35;102205.47;;;18.45
70333;BMP280;57747;43.548;-5.704;2022-07-23T01:30:02;102201.34;;;18.47
70333;BMP280;57747;43.548;-5.704;2022-07-23T01:32:30;102206.06;;;18.42
70333;BMP280;57747;43.548;-5.704;2022-07-23T01:34:58;102196.97;;;18.32
70333;BMP280;57747;43.548;-5.704;2022-07-23T01:37:24;102198.28;;;18.35
70333;BMP280;57747;43.548;-5.704;2022-07-23T01:39:49;102188.84;;;18.32
70333;BMP280;57747;43.548;-5.704;2022-07-23T01:42:17;102188.34;;;18.30
70333;BMP280;57747;43.548;-5.704;2022-07-23T01:44:45;102187.38;;;18.21
70333;BMP280;57747;43.548;-5.704;2022-07-23T01:47:13;102180.88;;;18.22
70333;BMP280;57747;43.548;-5.704;2022-07-23T01:49:41;102183.03;;;18.20
70333;BMP280;57747;43.548;-5.704;2022-07-23T01:52:06;102187.88;;;18.09
70333;BMP280;57747;43.548;-5.704;2022-07-23T01:54:36;102187.56;;;18.11
70333;BMP280;57747;43.548;-5.704;2022-07-23T01:57:02;102190.97;;;18.16
70333;BMP280;57747;43.548;-5.704;2022-07-23T02:01:57;102189.19;;;18.12
70333;BMP280;57747;43.548;-5.704;2022-07-23T02:04:23;102188.72;;;18.04
70333;BMP280;57747;43.548;-5.704;2022-07-23T02:06:52;102183.69;;;17.98
70333;BMP280;57747;43.548;-5.704;2022-07-23T02:09:21;102191.09;;;17.92
70333;BMP280;57747;43.548;-5.704;2022-07-23T02:11:49;102186.47;;;17.93
70333;BMP280;57747;43.548;-5.704;2022-07-23T02:14:17;102190.22;;;17.97
70333;BMP280;57747;43.548;-5.704;2022-07-23T02:16:44;102186.53;;;17.88
70333;BMP280;57747;43.548;-5.704;2022-07-23T02:19:13;102187.44;;;17.83
70333;BMP280;57747;43.548;-5.704;2022-07-23T02:21:38;102185.34;;;17.75
70333;BMP280;57747;43.548;-5.704;2022-07-23T02:24:08;102180.53;;;17.72
70333;BMP280;57747;43.548;-5.704;2022-07-23T02:26:33;102184.34;;;17.71
70333;BMP280;57747;43.548;-5.704;2022-07-23T02:29:02;102180.59;;;17.66
70333;BMP280;57747;43.548;-5.704;2022-07-23T02:31:28;102175.03;;;17.58
70333;BMP280;57747;43.548;-5.704;2022-07-23T02:33:54;102181.78;;;17.60
70333;BMP280;57747;43.548;-5.704;2022-07-23T02:36:23;102176.94;;;17.57
70333;BMP280;57747;43.548;-5.704;2022-07-23T02:38:50;102171.72;;;17.61
70333;BMP280;57747;43.548;-5.704;2022-07-23T02:41:21;102178.63;;;17.53
70333;BMP280;57747;43.548;-5.704;2022-07-23T02:43:47;102178.88;;;17.52
70333;BMP280;57747;43.548;-5.704;2022-07-23T02:46:12;102179.34;;;17.59
70333;BMP280;57747;43.548;-5.704;2022-07-23T02:48:38;102177.88;;;17.66
70333;BMP280;57747;43.548;-5.704;2022-07-23T02:51:06;102170.78;;;17.71
70333;BMP280;57747;43.548;-5.704;2022-07-23T02:53:31;102172.66;;;17.70
70333;BMP280;57747;43.548;-5.704;2022-07-23T02:55:57;102164.84;;;17.69
70333;BMP280;57747;43.548;-5.704;2022-07-23T02:58:22;102167.03;;;17.66
70333;BMP280;57747;43.548;-5.704;2022-07-23T03:00:52;102166.22;;;17.66
70333;BMP280;57747;43.548;-5.704;2022-07-23T03:03:17;102173.28;;;17.67
70333;BMP280;57747;43.548;-5.704;2022-07-23T03:05:45;102169.75;;;17.66
70333;BMP280;57747;43.548;-5.704;2022-07-23T03:08:10;102167.94;;;17.62
70333;BMP280;57747;43.548;-5.704;2022-07-23T03:10:36;102168.78;;;17.57
70333;BMP280;57747;43.548;-5.704;2022-07-23T03:13:06;102162.78;;;17.60
70333;BMP280;57747;43.548;-5.704;2022-07-23T03:15:33;102170.94;;;17.60
70333;BMP280;57747;43.548;-5.704;2022-07-23T03:17:59;102169.59;;;17.58
70333;BMP280;57747;43.548;-5.704;2022-07-23T03:20:27;102166.16;;;17.71
70333;BMP280;57747;43.548;-5.704;2022-07-23T03:22:55;102163.97;;;17.73
70333;BMP280;57747;43.548;-5.704;2022-07-23T03:25:20;102167.25;;;17.70
70333;BMP280;57747;43.548;-5.704;2022-07-23T03:27:46;102167.56;;;17.69
70333;BMP280;57747;43.548;-5.704;2022-07-23T03:30:13;102158.16;;;17.61
70333;BMP280;57747;43.548;-5.704;2022-07-23T03:32:43;102156.47;;;17.65
70333;BMP280;57747;43.548;-5.704;2022-07-23T03:35:12;102162.34;;;17.72
70333;BMP280;57747;43.548;-5.704;2022-07-23T03:37:42;102159.44;;;17.69
70333;BMP280;57747;43.548;-5.704;2022-07-23T03:40:08;102159.44;;;17.69
70333;BMP280;57747;43.548;-5.704;2022-07-23T03:42:39;102163.53;;;17.66
70333;BMP280;57747;43.548;-5.704;2022-07-23T03:45:06;102157.81;;;17.67
70333;BMP280;57747;43.548;-5.704;2022-07-23T03:47:34;102157.28;;;17.65
70333;BMP280;57747;43.548;-5.704;2022-07-23T03:50:04;102151.94;;;17.60
70333;BMP280;57747;43.548;-5.704;2022-07-23T03:52:30;102152.25;;;17.59
70333;BMP280;57747;43.548;-5.704;2022-07-23T03:54:55;102151.03;;;17.46
70333;BMP280;57747;43.548;-5.704;2022-07-23T03:57:23;102145.41;;;17.61
70333;BMP280;57747;43.548;-5.704;2022-07-23T04:02:43;102147.75;;;17.49
70333;BMP280;57747;43.548;-5.704;2022-07-23T04:05:08;102141.53;;;17.48
70333;BMP280;57747;43.548;-5.704;2022-07-23T04:07:37;102140.66;;;17.53
70333;BMP280;57747;43.548;-5.704;2022-07-23T04:10:02;102139.84;;;17.53
70333;BMP280;57747;43.548;-5.704;2022-07-23T04:12:34;102147.03;;;17.62
70333;BMP280;57747;43.548;-5.704;2022-07-23T04:15:02;102154.88;;;17.64
70333;BMP280;57747;43.548;-5.704;2022-07-23T04:17:28;102150.63;;;17.58
70333;BMP280;57747;43.548;-5.704;2022-07-23T04:19:56;102158.38;;;17.45
70333;BMP280;57747;43.548;-5.704;2022-07-23T04:22:31;102151.19;;;17.55
70333;BMP280;57747;43.548;-5.704;2022-07-23T04:24:59;102154.22;;;17.53
70333;BMP280;57747;43.548;-5.704;2022-07-23T04:27:26;102157.81;;;17.48
70333;BMP280;57747;43.548;-5.704;2022-07-23T04:30:01;102157.41;;;17.55
70333;BMP280;57747;43.548;-5.704;2022-07-23T04:32:31;102156.13;;;17.53
70333;BMP280;57747;43.548;-5.704;2022-07-23T04:35:02;102156.13;;;17.53
70333;BMP280;57747;43.548;-5.704;2022-07-23T04:37:29;102158.22;;;17.37
70333;BMP280;57747;43.548;-5.704;2022-07-23T04:39:55;102165.75;;;17.40
70333;BMP280;57747;43.548;-5.704;2022-07-23T04:42:23;102168.13;;;17.46
70333;BMP280;57747;43.548;-5.704;2022-07-23T04:44:51;102165.31;;;17.33
70333;BMP280;57747;43.548;-5.704;2022-07-23T04:47:16;102169.94;;;17.32
70333;BMP280;57747;43.548;-5.704;2022-07-23T04:49:44;102163.06;;;17.40
70333;BMP280;57747;43.548;-5.704;2022-07-23T04:52:12;102159.44;;;17.25
70333;BMP280;57747;43.548;-5.704;2022-07-23T04:54:43;102168.38;;;17.26
70333;BMP280;57747;43.548;-5.704;2022-07-23T04:57:08;102168.75;;;17.19
70333;BMP280;57747;43.548;-5.704;2022-07-23T04:59:39;102172.31;;;17.15
70333;BMP280;57747;43.548;-5.704;2022-07-23T05:02:05;102172.25;;;17.20
70333;BMP280;57747;43.548;-5.704;2022-07-23T05:04:33;102172.03;;;17.16
70333;BMP280;57747;43.548;-5.704;2022-07-23T05:06:58;102176.38;;;17.36
70333;BMP280;57747;43.548;-5.704;2022-07-23T05:09:29;102184.16;;;17.43
70333;BMP280;57747;43.548;-5.704;2022-07-23T05:11:57;102179.31;;;17.40
70333;BMP280;57747;43.548;-5.704;2022-07-23T05:14:28;102184.38;;;17.46
70333;BMP280;57747;43.548;-5.704;2022-07-23T05:16:56;102185.50;;;17.45
70333;BMP280;57747;43.548;-5.704;2022-07-23T05:19:27;102181.19;;;17.63
70333;BMP280;57747;43.548;-5.704;2022-07-23T05:21:53;102190.19;;;17.59
70333;BMP280;57747;43.548;-5.704;2022-07-23T05:24:18;102192.34;;;17.62
70333;BMP280;57747;43.548;-5.704;2022-07-23T05:26:52;102184.84;;;17.73
70333;BMP280;57747;43.548;-5.704;2022-07-23T05:29:24;102184.53;;;17.79
70333;BMP280;57747;43.548;-5.704;2022-07-23T05:31:49;102184.13;;;17.86
70333;BMP280;57747;43.548;-5.704;2022-07-23T05:34:15;102179.00;;;17.84
70333;BMP280;57747;43.548;-5.704;2022-07-23T05:36:43;102180.66;;;17.99
70333;BMP280;57747;43.548;-5.704;2022-07-23T05:39:08;102178.28;;;17.98
70333;BMP280;57747;43.548;-5.704;2022-07-23T05:41:39;102176.13;;;17.95
70333;BMP280;57747;43.548;-5.704;2022-07-23T05:44:08;102177.16;;;17.99
70333;BMP280;57747;43.548;-5.704;2022-07-23T05:46:42;102171.28;;;18.11
70333;BMP280;57747;43.548;-5.704;2022-07-23T05:49:13;102175.00;;;18.15
70333;BMP280;57747;43.548;-5.704;2022-07-23T05:51:43;102168.28;;;18.26
70333;BMP280;57747;43.548;-5.704;2022-07-23T05:54:08;102175.06;;;18.29
70333;BMP280;57747;43.548;-5.704;2022-07-23T05:56:34;102177.31;;;18.40
70333;BMP280;57747;43.548;-5.704;2022-07-23T05:59:03;102170.38;;;18.48
70333;BMP280;57747;43.548;-5.704;2022-07-23T06:01:34;102172.22;;;18.53
70333;BMP280;57747;43.548;-5.704;2022-07-23T06:04:02;102177.84;;;18.56
70333;BMP280;57747;43.548;-5.704;2022-07-23T06:06:31;102177.25;;;18.73
70333;BMP280;57747;43.548;-5.704;2022-07-23T06:09:02;102172.75;;;18.83
70333;BMP280;57747;43.548;-5.704;2022-07-23T06:11:30;102168.91;;;18.98
70333;BMP280;57747;43.548;-5.704;2022-07-23T06:13:59;102165.56;;;19.01
70333;BMP280;57747;43.548;-5.704;2022-07-23T06:16:24;102165.47;;;19.06
70333;BMP280;57747;43.548;-5.704;2022-07-23T06:18:52;102166.00;;;19.08
70333;BMP280;57747;43.548;-5.704;2022-07-23T06:21:21;102163.09;;;19.04
70333;BMP280;57747;43.548;-5.704;2022-07-23T06:23:46;102165.97;;;19.22
70333;BMP280;57747;43.548;-5.704;2022-07-23T06:26:14;102161.91;;;19.33
70333;BMP280;57747;43.548;-5.704;2022-07-23T06:28:44;102163.19;;;19.49
70333;BMP280;57747;43.548;-5.704;2022-07-23T06:31:13;102160.28;;;19.46
70333;BMP280;57747;43.548;-5.704;2022-07-23T06:33:45;102160.69;;;19.39
70333;BMP280;57747;43.548;-5.704;2022-07-23T06:36:11;102163.69;;;19.51
70333;BMP280;57747;43.548;-5.704;2022-07-23T06:38:36;102157.94;;;19.53
70333;BMP280;57747;43.548;-5.704;2022-07-23T06:41:07;102159.91;;;19.39
70333;BMP280;57747;43.548;-5.704;2022-07-23T06:43:36;102157.16;;;19.52
70333;BMP280;57747;43.548;-5.704;2022-07-23T06:46:01;102152.88;;;19.60
70333;BMP280;57747;43.548;-5.704;2022-07-23T06:48:27;102156.31;;;19.52
70333;BMP280;57747;43.548;-5.704;2022-07-23T06:50:54;102156.16;;;19.71
70333;BMP280;57747;43.548;-5.704;2022-07-23T06:53:20;102151.53;;;19.71
70333;BMP280;57747;43.548;-5.704;2022-07-23T06:55:46;102153.28;;;19.67
70333;BMP280;57747;43.548;-5.704;2022-07-23T06:58:11;102156.09;;;19.62
70333;BMP280;57747;43.548;-5.704;2022-07-23T07:00:39;102152.16;;;19.68
70333;BMP280;57747;43.548;-5.704;2022-07-23T07:03:05;102163.63;;;19.65
70333;BMP280;57747;43.548;-5.704;2022-07-23T07:05:32;102159.13;;;19.83
70333;BMP280;57747;43.548;-5.704;2022-07-23T07:08:01;102169.16;;;19.97
70333;BMP280;57747;43.548;-5.704;2022-07-23T07:10:32;102159.75;;;20.03
70333;BMP280;57747;43.548;-5.704;2022-07-23T07:12:57;102160.50;;;19.95
70333;BMP280;57747;43.548;-5.704;2022-07-23T07:15:26;102156.72;;;20.04
70333;BMP280;57747;43.548;-5.704;2022-07-23T07:17:52;102159.59;;;19.99
70333;BMP280;57747;43.548;-5.704;2022-07-23T07:20:21;102157.78;;;20.17
70333;BMP280;57747;43.548;-5.704;2022-07-23T07:22:46;102153.91;;;20.18
70333;BMP280;57747;43.548;-5.704;2022-07-23T07:25:14;102156.97;;;20.17
70333;BMP280;57747;43.548;-5.704;2022-07-23T07:27:40;102155.94;;;20.35
70333;BMP280;57747;43.548;-5.704;2022-07-23T07:30:11;102147.84;;;20.53
70333;BMP280;57747;43.548;-5.704;2022-07-23T07:32:45;102151.09;;;20.63
70333;BMP280;57747;43.548;-5.704;2022-07-23T07:35:13;102151.72;;;20.60
70333;BMP280;57747;43.548;-5.704;2022-07-23T07:37:41;102150.31;;;20.72
70333;BMP280;57747;43.548;-5.704;2022-07-23T07:40:11;102148.53;;;20.67
70333;BMP280;57747;43.548;-5.704;2022-07-23T07:42:46;102144.56;;;20.82
70333;BMP280;57747;43.548;-5.704;2022-07-23T07:45:11;102153.69;;;20.69
70333;BMP280;57747;43.548;-5.704;2022-07-23T07:47:42;102145.88;;;20.93
70333;BMP280;57747;43.548;-5.704;2022-07-23T07:50:13;102143.94;;;20.85
70333;BMP280;57747;43.548;-5.704;2022-07-23T07:52:40;102144.44;;;20.96
70333;BMP280;57747;43.548;-5.704;2022-07-23T07:55:12;102147.31;;;20.91
70333;BMP280;57747;43.548;-5.704;2022-07-23T07:57:38;102157.09;;;21.00
70333;BMP280;57747;43.548;-5.704;2022-07-23T08:00:06;102148.31;;;20.95
70333;BMP280;57747;43.548;-5.704;2022-07-23T08:02:42;102144.31;;;21.10
70333;BMP280;57747;43.548;-5.704;2022-07-23T08:05:07;102145.09;;;21.10
70333;BMP280;57747;43.548;-5.704;2022-07-23T08:07:38;102155.41;;;21.31
70333;BMP280;57747;43.548;-5.704;2022-07-23T08:10:07;102148.97;;;21.61
70333;BMP280;57747;43.548;-5.704;2022-07-23T08:15:07;102137.03;;;21.92
70333;BMP280;57747;43.548;-5.704;2022-07-23T08:17:36;102137.31;;;21.99
70333;BMP280;57747;43.548;-5.704;2022-07-23T08:20:04;102142.59;;;22.13
70333;BMP280;57747;43.548;-5.704;2022-07-23T08:22:48;102146.09;;;22.23
70333;BMP280;57747;43.548;-5.704;2022-07-23T08:25:15;102142.63;;;22.73
70333;BMP280;57747;43.548;-5.704;2022-07-23T08:27:46;102129.34;;;22.33
70333;BMP280;57747;43.548;-5.704;2022-07-23T08:30:15;102138.31;;;22.63
70333;BMP280;57747;43.548;-5.704;2022-07-23T08:35:17;102124.72;;;22.54
70333;BMP280;57747;43.548;-5.704;2022-07-23T08:37:45;102131.69;;;22.73
70333;BMP280;57747;43.548;-5.704;2022-07-23T08:40:15;102128.09;;;22.51
70333;BMP280;57747;43.548;-5.704;2022-07-23T08:42:49;102138.09;;;23.19
70333;BMP280;57747;43.548;-5.704;2022-07-23T08:45:19;102137.28;;;23.19
70333;BMP280;57747;43.548;-5.704;2022-07-23T08:47:50;102131.41;;;23.29
70333;BMP280;57747;43.548;-5.704;2022-07-23T08:50:15;102139.91;;;23.15
70333;BMP280;57747;43.548;-5.704;2022-07-23T08:52:44;102132.69;;;23.10
70333;BMP280;57747;43.548;-5.704;2022-07-23T08:55:10;102138.09;;;22.98
70333;BMP280;57747;43.548;-5.704;2022-07-23T08:57:41;102126.47;;;22.59
70333;BMP280;57747;43.548;-5.704;2022-07-23T09:00:10;102129.78;;;21.96
70333;BMP280;57747;43.548;-5.704;2022-07-23T09:02:39;102142.16;;;21.94
70333;BMP280;57747;43.548;-5.704;2022-07-23T09:05:08;102138.06;;;22.47
70333;BMP280;57747;43.548;-5.704;2022-07-23T09:07:34;102130.25;;;22.67
70333;BMP280;57747;43.548;-5.704;2022-07-23T09:10:12;102128.72;;;22.57
70333;BMP280;57747;43.548;-5.704;2022-07-23T09:12:37;102130.63;;;23.62
70333;BMP280;57747;43.548;-5.704;2022-07-23T09:15:06;102126.66;;;23.71
70333;BMP280;57747;43.548;-5.704;2022-07-23T09:17:37;102119.34;;;23.76
70333;BMP280;57747;43.548;-5.704;2022-07-23T09:20:12;102124.28;;;23.94
70333;BMP280;57747;43.548;-5.704;2022-07-23T09:22:48;102126.72;;;23.63
70333;BMP280;57747;43.548;-5.704;2022-07-23T09:25:17;102128.13;;;23.69
70333;BMP280;57747;43.548;-5.704;2022-07-23T09:27:51;102126.44;;;23.43
70333;BMP280;57747;43.548;-5.704;2022-07-23T09:30:29;102128.06;;;24.02
70333;BMP280;57747;43.548;-5.704;2022-07-23T09:38:28;102135.91;;;24.04
70333;BMP280;57747;43.548;-5.704;2022-07-23T09:41:07;102138.50;;;23.76
70333;BMP280;57747;43.548;-5.704;2022-07-23T09:43:32;102133.66;;;23.93
70333;BMP280;57747;43.548;-5.704;2022-07-23T09:46:17;102131.72;;;23.15
70333;BMP280;57747;43.548;-5.704;2022-07-23T09:48:44;102133.94;;;23.34
70333;BMP280;57747;43.548;-5.704;2022-07-23T09:51:14;102121.53;;;23.37
70333;BMP280;57747;43.548;-5.704;2022-07-23T09:54:03;102126.78;;;23.75
70333;BMP280;57747;43.548;-5.704;2022-07-23T09:56:34;102123.94;;;23.84
70333;BMP280;57747;43.548;-5.704;2022-07-23T09:59:06;102122.66;;;23.81
70333;BMP280;57747;43.548;-5.704;2022-07-23T10:01:41;102121.63;;;23.86
70333;BMP280;57747;43.548;-5.704;2022-07-23T10:04:12;102123.59;;;23.98
70333;BMP280;57747;43.548;-5.704;2022-07-23T10:06:40;102124.06;;;24.24
70333;BMP280;57747;43.548;-5.704;2022-07-23T10:09:11;102123.03;;;23.80
70333;BMP280;57747;43.548;-5.704;2022-07-23T10:11:42;102120.75;;;24.06
70333;BMP280;57747;43.548;-5.704;2022-07-23T10:14:08;102119.28;;;24.21
70333;BMP280;57747;43.548;-5.704;2022-07-23T10:16:33;102119.81;;;24.27
70333;BMP280;57747;43.548;-5.704;2022-07-23T10:19:04;102126.47;;;24.01
70333;BMP280;57747;43.548;-5.704;2022-07-23T10:21:45;102113.44;;;24.23
70333;BMP280;57747;43.548;-5.704;2022-07-23T10:26:51;102118.72;;;24.81
70333;BMP280;57747;43.548;-5.704;2022-07-23T10:29:38;102119.56;;;24.44
70333;BMP280;57747;43.548;-5.704;2022-07-23T10:32:20;102120.16;;;24.38
70333;BMP280;57747;43.548;-5.704;2022-07-23T10:37:34;102111.59;;;24.39
70333;BMP280;57747;43.548;-5.704;2022-07-23T10:40:15;102118.13;;;24.35
70333;BMP280;57747;43.548;-5.704;2022-07-23T10:42:46;102114.00;;;23.91
70333;BMP280;57747;43.548;-5.704;2022-07-23T10:45:25;102120.97;;;24.01
70333;BMP280;57747;43.548;-5.704;2022-07-23T10:47:52;102110.56;;;24.07
70333;BMP280;57747;43.548;-5.704;2022-07-23T10:50:18;102123.13;;;23.83
70333;BMP280;57747;43.548;-5.704;2022-07-23T10:55:38;102109.91;;;24.35
70333;BMP280;57747;43.548;-5.704;2022-07-23T10:58:07;102111.53;;;24.23
70333;BMP280;57747;43.548;-5.704;2022-07-23T11:00:34;102112.50;;;24.43
70333;BMP280;57747;43.548;-5.704;2022-07-23T11:03:27;102115.66;;;24.58
70333;BMP280;57747;43.548;-5.704;2022-07-23T11:05:49;102109.91;;;24.22
70333;BMP280;57747;43.548;-5.704;2022-07-23T11:08:15;102119.03;;;24.39
70333;BMP280;57747;43.548;-5.704;2022-07-23T11:13:25;102113.53;;;24.51
70333;BMP280;57747;43.548;-5.704;2022-07-23T11:26:43;102110.66;;;24.72
70333;BMP280;57747;43.548;-5.704;2022-07-23T11:34:43;102116.88;;;24.72
70333;BMP280;57747;43.548;-5.704;2022-07-23T11:37:15;102121.00;;;24.13
70333;BMP280;57747;43.548;-5.704;2022-07-23T11:39:53;102114.69;;;23.76
70333;BMP280;57747;43.548;-5.704;2022-07-23T11:42:22;102117.91;;;24.03
70333;BMP280;57747;43.548;-5.704;2022-07-23T11:44:53;102112.81;;;24.66
70333;BMP280;57747;43.548;-5.704;2022-07-23T11:47:25;102111.38;;;24.85
70333;BMP280;57747;43.548;-5.704;2022-07-23T11:50:02;102107.81;;;24.56
70333;BMP280;57747;43.548;-5.704;2022-07-23T11:52:31;102105.69;;;24.78
70333;BMP280;57747;43.548;-5.704;2022-07-23T11:55:04;102115.75;;;24.74
70333;BMP280;57747;43.548;-5.704;2022-07-23T11:57:35;102099.63;;;24.84
70333;BMP280;57747;43.548;-5.704;2022-07-23T12:00:10;102111.50;;;24.88
70333;BMP280;57747;43.548;-5.704;2022-07-23T12:02:40;102113.22;;;25.09
70333;BMP280;57747;43.548;-5.704;2022-07-23T12:05:06;102103.97;;;25.29
70333;BMP280;57747;43.548;-5.704;2022-07-23T12:07:41;102108.78;;;25.48
70333;BMP280;57747;43.548;-5.704;2022-07-23T12:10:20;102110.75;;;25.48
70333;BMP280;57747;43.548;-5.704;2022-07-23T12:12:54;102099.03;;;25.67
70333;BMP280;57747;43.548;-5.704;2022-07-23T12:15:22;102100.56;;;25.64
70333;BMP280;57747;43.548;-5.704;2022-07-23T12:17:52;102104.84;;;25.18
70333;BMP280;57747;43.548;-5.704;2022-07-23T12:20:24;102100.19;;;25.34
70333;BMP280;57747;43.548;-5.704;2022-07-23T12:22:55;102086.47;;;25.18
70333;BMP280;57747;43.548;-5.704;2022-07-23T12:25:32;102091.00;;;24.98
70333;BMP280;57747;43.548;-5.704;2022-07-23T12:28:07;102100.38;;;25.57
70333;BMP280;57747;43.548;-5.704;2022-07-23T12:30:45;102096.03;;;24.96
70333;BMP280;57747;43.548;-5.704;2022-07-23T12:33:12;102097.22;;;25.11
70333;BMP280;57747;43.548;-5.704;2022-07-23T12:35:44;102098.84;;;25.44
70333;BMP280;57747;43.548;-5.704;2022-07-23T12:38:11;102095.34;;;25.15
70333;BMP280;57747;43.548;-5.704;2022-07-23T12:43:07;102095.66;;;24.82
70333;BMP280;57747;43.548;-5.704;2022-07-23T12:45:46;102083.78;;;24.94
70333;BMP280;57747;43.548;-5.704;2022-07-23T12:48:29;102090.25;;;25.29
70333;BMP280;57747;43.548;-5.704;2022-07-23T12:50:56;102088.03;;;24.91
70333;BMP280;57747;43.548;-5.704;2022-07-23T12:56:04;102078.06;;;24.70
70333;BMP280;57747;43.548;-5.704;2022-07-23T12:58:49;102073.63;;;25.38
70333;BMP280;57747;43.548;-5.704;2022-07-23T13:06:31;102074.88;;;24.97
70333;BMP280;57747;43.548;-5.704;2022-07-23T13:08:59;102067.28;;;25.06
70333;BMP280;57747;43.548;-5.704;2022-07-23T13:11:25;102073.28;;;25.11
70333;BMP280;57747;43.548;-5.704;2022-07-23T13:13:50;102079.13;;;25.38
70333;BMP280;57747;43.548;-5.704;2022-07-23T13:16:24;102064.56;;;25.06
70333;BMP280;57747;43.548;-5.704;2022-07-23T13:19:01;102074.56;;;25.14
70333;BMP280;57747;43.548;-5.704;2022-07-23T13:21:30;102069.28;;;25.37
70333;BMP280;57747;43.548;-5.704;2022-07-23T13:24:01;102077.22;;;25.26
70333;BMP280;57747;43.548;-5.704;2022-07-23T13:26:32;102069.56;;;25.48
70333;BMP280;57747;43.548;-5.704;2022-07-23T13:29:03;102071.03;;;25.61
70333;BMP280;57747;43.548;-5.704;2022-07-23T13:31:34;102063.50;;;25.26
70333;BMP280;57747;43.548;-5.704;2022-07-23T13:34:08;102069.56;;;25.48
70333;BMP280;57747;43.548;-5.704;2022-07-23T13:36:36;102063.34;;;25.35
70333;BMP280;57747;43.548;-5.704;2022-07-23T13:39:05;102063.06;;;25.40
70333;BMP280;57747;43.548;-5.704;2022-07-23T13:41:30;102050.59;;;25.75
70333;BMP280;57747;43.548;-5.704;2022-07-23T13:44:02;102055.19;;;25.70
70333;BMP280;57747;43.548;-5.704;2022-07-23T13:46:34;102063.78;;;25.53
70333;BMP280;57747;43.548;-5.704;2022-07-23T13:49:04;102062.88;;;25.81
70333;BMP280;57747;43.548;-5.704;2022-07-23T13:51:32;102052.44;;;25.86
70333;BMP280;57747;43.548;-5.704;2022-07-23T13:54:06;102062.03;;;25.77
70333;BMP280;57747;43.548;-5.704;2022-07-23T13:56:34;102049.56;;;25.99
70333;BMP280;57747;43.548;-5.704;2022-07-23T13:59:05;102056.00;;;25.87
70333;BMP280;57747;43.548;-5.704;2022-07-23T14:01:36;102048.75;;;25.63
70333;BMP280;57747;43.548;-5.704;2022-07-23T14:04:05;102047.25;;;25.49
70333;BMP280;57747;43.548;-5.704;2022-07-23T14:06:30;102056.44;;;25.57
70333;BMP280;57747;43.548;-5.704;2022-07-23T14:08:56;102052.53;;;25.74
70333;BMP280;57747;43.548;-5.704;2022-07-23T14:11:27;102045.44;;;26.08
70333;BMP280;57747;43.548;-5.704;2022-07-23T14:13:58;102044.91;;;25.83
70333;BMP280;57747;43.548;-5.704;2022-07-23T14:16:31;102055.84;;;25.48
70333;BMP280;57747;43.548;-5.704;2022-07-23T14:18:57;102055.19;;;25.86
70333;BMP280;57747;43.548;-5.704;2022-07-23T14:21:27;102047.38;;;25.88
70333;BMP280;57747;43.548;-5.704;2022-07-23T14:23:56;102055.03;;;25.47
70333;BMP280;57747;43.548;-5.704;2022-07-23T14:26:33;102040.91;;;25.81
70333;BMP280;57747;43.548;-5.704;2022-07-23T14:28:58;102039.03;;;26.01
70333;BMP280;57747;43.548;-5.704;2022-07-23T14:31:26;102043.59;;;25.61
70333;BMP280;57747;43.548;-5.704;2022-07-23T14:33:57;102048.84;;;25.66
70333;BMP280;57747;43.548;-5.704;2022-07-23T14:36:26;102043.84;;;25.40
70333;BMP280;57747;43.548;-5.704;2022-07-23T14:38:57;102047.16;;;25.62
70333;BMP280;57747;43.548;-5.704;2022-07-23T14:41:28;102039.16;;;25.73
70333;BMP280;57747;43.548;-5.704;2022-07-23T14:43:56;102039.00;;;25.65
70333;BMP280;57747;43.548;-5.704;2022-07-23T14:46:25;102041.38;;;25.51
70333;BMP280;57747;43.548;-5.704;2022-07-23T14:48:53;102044.75;;;25.60